sensor_id;sensor_type;location;lat;lon;timestamp;temperature;humidity
33803;DHT22;20110;53.120;5.786;2023-04-01T00:01:00;8.60;99.90
33803;DHT22;20110;53.120;5.786;2023-04-01T00:03:27;8.60;99.90
33803;DHT22;20110;53.120;5.786;2023-04-01T00:05:55;8.60;99.90
33803;DHT22;20110;53.120;5.786;2023-04-01T00:08:23;8.60;99.90
33803;DHT22;20110;53.120;5.786;2023-04-01T00:10:50;8.60;99.90
33803;DHT22;20110;53.120;5.786;2023-04-01T00:13:16;8.50;99.90
33803;DHT22;20110;53.120;5.786;2023-04-01T00:15:42;8.50;99.90
33803;DHT22;20110;53.120;5.786;2023-04-01T00:18:09;8.50;99.90
33803;DHT22;20110;53.120;5.786;2023-04-01T00:20:35;8.40;99.90
33803;DHT22;20110;53.120;5.786;2023-04-01T00:23:01;8.40;99.90
33803;DHT22;20110;53.120;5.786;2023-04-01T00:25:27;8.40;99.90
33803;DHT22;20110;53.120;5.786;2023-04-01T00:27:53;8.40;99.90
33803;DHT22;20110;53.120;5.786;2023-04-01T00:30:19;8.40;99.90
33803;DHT22;20110;53.120;5.786;2023-04-01T00:32:45;8.50;99.90
33803;DHT22;20110;53.120;5.786;2023-04-01T00:35:11;8.50;99.90
33803;DHT22;20110;53.120;5.786;2023-04-01T00:37:38;8.50;99.90
33803;DHT22;20110;53.120;5.786;2023-04-01T00:40:11;8.50;99.90
33803;DHT22;20110;53.120;5.786;2023-04-01T00:42:57;8.50;99.90
33803;DHT22;20110;53.120;5.786;2023-04-01T00:45:28;8.50;99.90
33803;DHT22;20110;53.120;5.786;2023-04-01T00:47:59;8.50;99.90
33803;DHT22;20110;53.120;5.786;2023-04-01T00:50:30;8.40;99.90
33803;DHT22;20110;53.120;5.786;2023-04-01T00:52:59;8.30;99.90
33803;DHT22;20110;53.120;5.786;2023-04-01T00:55:27;8.30;99.90
33803;DHT22;20110;53.120;5.786;2023-04-01T00:57:57;8.30;99.90
33803;DHT22;20110;53.120;5.786;2023-04-01T01:00:25;8.30;99.90
33803;DHT22;20110;53.120;5.786;2023-04-01T01:02:52;8.30;99.90
33803;DHT22;20110;53.120;5.786;2023-04-01T01:05:23;8.40;99.90
33803;DHT22;20110;53.120;5.786;2023-04-01T01:08:22;8.40;99.90
33803;DHT22;20110;53.120;5.786;2023-04-01T01:10:56;8.40;99.90
33803;DHT22;20110;53.120;5.786;2023-04-01T01:13:36;8.40;99.90
33803;DHT22;20110;53.120;5.786;2023-04-01T01:16:30;8.40;99.90
33803;DHT22;20110;53.120;5.786;2023-04-01T01:19:17;8.10;99.90
33803;DHT22;20110;53.120;5.786;2023-04-01T01:30:57;8.30;99.90
33803;DHT22;20110;53.120;5.786;2023-04-01T01:36:38;8.40;99.90
33803;DHT22;20110;53.120;5.786;2023-04-01T01:39:08;8.40;99.90
33803;DHT22;20110;53.120;5.786;2023-04-01T01:41:38;8.40;99.90
33803;DHT22;20110;53.120;5.786;2023-04-01T01:44:08;8.40;99.90
33803;DHT22;20110;53.120;5.786;2023-04-01T01:46:39;8.40;99.90
33803;DHT22;20110;53.120;5.786;2023-04-01T01:49:10;8.40;99.90
33803;DHT22;20110;53.120;5.786;2023-04-01T01:51:38;8.40;99.90
33803;DHT22;20110;53.120;5.786;2023-04-01T01:54:05;8.40;99.90
33803;DHT22;20110;53.120;5.786;2023-04-01T01:56:32;8.40;99.90
33803;DHT22;20110;53.120;5.786;2023-04-01T01:59:03;8.40;99.90
33803;DHT22;20110;53.120;5.786;2023-04-01T02:01:37;8.40;99.90
33803;DHT22;20110;53.120;5.786;2023-04-01T02:04:07;8.50;99.90
33803;DHT22;20110;53.120;5.786;2023-04-01T02:06:40;8.50;99.90
33803;DHT22;20110;53.120;5.786;2023-04-01T02:09:10;8.50;99.90
33803;DHT22;20110;53.120;5.786;2023-04-01T02:11:56;8.50;99.90
33803;DHT22;20110;53.120;5.786;2023-04-01T02:14:47;8.50;99.90
33803;DHT22;20110;53.120;5.786;2023-04-01T02:17:23;8.50;99.90
33803;DHT22;20110;53.120;5.786;2023-04-01T02:19:57;8.50;99.90
33803;DHT22;20110;53.120;5.786;2023-04-01T02:22:34;8.50;99.90
33803;DHT22;20110;53.120;5.786;2023-04-01T02:25:08;8.50;99.90
33803;DHT22;20110;53.120;5.786;2023-04-01T02:27:37;8.50;99.90
33803;DHT22;20110;53.120;5.786;2023-04-01T02:30:05;8.50;99.90
33803;DHT22;20110;53.120;5.786;2023-04-01T02:32:33;8.50;99.90
33803;DHT22;20110;53.120;5.786;2023-04-01T02:35:09;8.50;99.90
33803;DHT22;20110;53.120;5.786;2023-04-01T02:37:37;8.50;99.90
33803;DHT22;20110;53.120;5.786;2023-04-01T02:40:06;8.50;99.90
33803;DHT22;20110;53.120;5.786;2023-04-01T02:42:34;8.50;99.90
33803;DHT22;20110;53.120;5.786;2023-04-01T02:45:00;8.50;99.90
33803;DHT22;20110;53.120;5.786;2023-04-01T02:47:25;8.50;99.90
33803;DHT22;20110;53.120;5.786;2023-04-01T02:49:51;8.50;99.90
33803;DHT22;20110;53.120;5.786;2023-04-01T02:52:23;8.50;99.90
33803;DHT22;20110;53.120;5.786;2023-04-01T02:54:50;8.50;99.90
33803;DHT22;20110;53.120;5.786;2023-04-01T02:57:16;8.50;99.90
33803;DHT22;20110;53.120;5.786;2023-04-01T02:59:41;8.50;99.90
33803;DHT22;20110;53.120;5.786;2023-04-01T03:02:07;8.50;99.90
33803;DHT22;20110;53.120;5.786;2023-04-01T03:04:33;8.50;99.90
33803;DHT22;20110;53.120;5.786;2023-04-01T03:06:59;8.50;99.90
33803;DHT22;20110;53.120;5.786;2023-04-01T03:09:25;8.50;99.90
33803;DHT22;20110;53.120;5.786;2023-04-01T03:11:51;8.50;99.90
33803;DHT22;20110;53.120;5.786;2023-04-01T03:14:16;8.50;99.90
33803;DHT22;20110;53.120;5.786;2023-04-01T03:16:42;8.50;99.90
33803;DHT22;20110;53.120;5.786;2023-04-01T03:19:08;8.50;99.90
33803;DHT22;20110;53.120;5.786;2023-04-01T03:21:34;8.50;99.90
33803;DHT22;20110;53.120;5.786;2023-04-01T03:24:00;8.50;99.90
33803;DHT22;20110;53.120;5.786;2023-04-01T03:26:25;8.50;99.90
33803;DHT22;20110;53.120;5.786;2023-04-01T03:28:55;8.50;99.90
33803;DHT22;20110;53.120;5.786;2023-04-01T03:31:21;8.50;99.90
33803;DHT22;20110;53.120;5.786;2023-04-01T03:33:47;8.40;99.90
33803;DHT22;20110;53.120;5.786;2023-04-01T03:36:13;8.50;99.90
33803;DHT22;20110;53.120;5.786;2023-04-01T03:38:43;8.50;99.90
33803;DHT22;20110;53.120;5.786;2023-04-01T03:41:17;8.50;99.90
33803;DHT22;20110;53.120;5.786;2023-04-01T03:43:43;8.40;99.90
33803;DHT22;20110;53.120;5.786;2023-04-01T03:46:10;8.40;99.90
33803;DHT22;20110;53.120;5.786;2023-04-01T03:48:36;8.40;99.90
33803;DHT22;20110;53.120;5.786;2023-04-01T03:51:06;8.40;99.90
33803;DHT22;20110;53.120;5.786;2023-04-01T03:53:33;8.40;99.90
33803;DHT22;20110;53.120;5.786;2023-04-01T03:56:03;8.40;99.90
33803;DHT22;20110;53.120;5.786;2023-04-01T03:58:30;8.40;99.90
33803;DHT22;20110;53.120;5.786;2023-04-01T04:00:56;8.40;99.90
33803;DHT22;20110;53.120;5.786;2023-04-01T04:03:22;8.40;99.90
33803;DHT22;20110;53.120;5.786;2023-04-01T04:05:49;8.40;99.90
33803;DHT22;20110;53.120;5.786;2023-04-01T04:08:16;8.40;99.90
33803;DHT22;20110;53.120;5.786;2023-04-01T04:10:42;8.40;99.90
33803;DHT22;20110;53.120;5.786;2023-04-01T04:13:09;8.40;99.90
33803;DHT22;20110;53.120;5.786;2023-04-01T04:15:35;8.40;99.90
33803;DHT22;20110;53.120;5.786;2023-04-01T04:18:00;8.40;99.90
33803;DHT22;20110;53.120;5.786;2023-04-01T04:20:26;8.40;99.90
33803;DHT22;20110;53.120;5.786;2023-04-01T04:22:52;8.40;99.90
33803;DHT22;20110;53.120;5.786;2023-04-01T04:25:18;8.40;99.90
33803;DHT22;20110;53.120;5.786;2023-04-01T04:27:43;8.40;99.90
33803;DHT22;20110;53.120;5.786;2023-04-01T04:30:10;8.40;99.90
33803;DHT22;20110;53.120;5.786;2023-04-01T04:32:36;8.40;99.90
33803;DHT22;20110;53.120;5.786;2023-04-01T04:35:02;8.40;99.90
33803;DHT22;20110;53.120;5.786;2023-04-01T04:37:28;8.40;99.90
33803;DHT22;20110;53.120;5.786;2023-04-01T04:39:54;8.40;99.90
33803;DHT22;20110;53.120;5.786;2023-04-01T04:42:20;8.40;99.90
33803;DHT22;20110;53.120;5.786;2023-04-01T04:44:46;8.40;99.90
33803;DHT22;20110;53.120;5.786;2023-04-01T04:47:12;8.40;99.90
33803;DHT22;20110;53.120;5.786;2023-04-01T04:49:38;8.40;99.90
33803;DHT22;20110;53.120;5.786;2023-04-01T04:52:03;8.40;99.90
33803;DHT22;20110;53.120;5.786;2023-04-01T04:54:29;8.40;99.90
33803;DHT22;20110;53.120;5.786;2023-04-01T04:56:55;8.40;99.90
33803;DHT22;20110;53.120;5.786;2023-04-01T04:59:21;8.40;99.90
33803;DHT22;20110;53.120;5.786;2023-04-01T05:01:47;8.40;99.90
33803;DHT22;20110;53.120;5.786;2023-04-01T05:04:12;8.40;99.90
33803;DHT22;20110;53.120;5.786;2023-04-01T05:06:38;8.40;99.90
33803;DHT22;20110;53.120;5.786;2023-04-01T05:09:04;8.40;99.90
33803;DHT22;20110;53.120;5.786;2023-04-01T05:11:30;8.40;99.90
33803;DHT22;20110;53.120;5.786;2023-04-01T05:13:55;8.40;99.90
33803;DHT22;20110;53.120;5.786;2023-04-01T05:16:21;8.40;99.90
33803;DHT22;20110;53.120;5.786;2023-04-01T05:18:47;8.40;99.90
33803;DHT22;20110;53.120;5.786;2023-04-01T05:21:14;8.40;99.90
33803;DHT22;20110;53.120;5.786;2023-04-01T05:23:41;8.40;99.90
33803;DHT22;20110;53.120;5.786;2023-04-01T05:26:11;8.50;99.90
33803;DHT22;20110;53.120;5.786;2023-04-01T05:28:38;8.50;99.90
33803;DHT22;20110;53.120;5.786;2023-04-01T05:31:04;8.50;99.90
33803;DHT22;20110;53.120;5.786;2023-04-01T05:33:31;8.50;99.90
33803;DHT22;20110;53.120;5.786;2023-04-01T05:36:09;8.50;99.90
33803;DHT22;20110;53.120;5.786;2023-04-01T05:38:37;8.50;99.90
33803;DHT22;20110;53.120;5.786;2023-04-01T05:41:03;8.50;99.90
33803;DHT22;20110;53.120;5.786;2023-04-01T05:43:29;8.50;99.90
33803;DHT22;20110;53.120;5.786;2023-04-01T05:45:55;8.50;99.90
33803;DHT22;20110;53.120;5.786;2023-04-01T05:48:22;8.50;99.90
33803;DHT22;20110;53.120;5.786;2023-04-01T05:50:48;8.50;99.90
33803;DHT22;20110;53.120;5.786;2023-04-01T05:53:13;8.50;99.90
33803;DHT22;20110;53.120;5.786;2023-04-01T05:55:39;8.50;99.90
33803;DHT22;20110;53.120;5.786;2023-04-01T05:58:05;8.50;99.90
33803;DHT22;20110;53.120;5.786;2023-04-01T06:00:31;8.50;99.90
33803;DHT22;20110;53.120;5.786;2023-04-01T06:02:59;8.50;99.90
33803;DHT22;20110;53.120;5.786;2023-04-01T06:05:28;8.50;99.90
33803;DHT22;20110;53.120;5.786;2023-04-01T06:08:01;8.50;99.90
33803;DHT22;20110;53.120;5.786;2023-04-01T06:10:55;8.50;99.90
33803;DHT22;20110;53.120;5.786;2023-04-01T06:19:32;8.50;99.90
33803;DHT22;20110;53.120;5.786;2023-04-01T06:31:25;8.50;99.90
33803;DHT22;20110;53.120;5.786;2023-04-01T06:45:10;8.50;99.90
33803;DHT22;20110;53.120;5.786;2023-04-01T06:53:54;8.60;99.90
33803;DHT22;20110;53.120;5.786;2023-04-01T06:56:28;8.60;99.90
33803;DHT22;20110;53.120;5.786;2023-04-01T06:59:02;8.60;99.90
33803;DHT22;20110;53.120;5.786;2023-04-01T07:01:40;8.60;99.90
33803;DHT22;20110;53.120;5.786;2023-04-01T07:04:35;8.70;99.90
33803;DHT22;20110;53.120;5.786;2023-04-01T07:07:24;8.70;99.90
33803;DHT22;20110;53.120;5.786;2023-04-01T07:09:54;8.70;99.90
33803;DHT22;20110;53.120;5.786;2023-04-01T07:15:17;8.80;99.90
33803;DHT22;20110;53.120;5.786;2023-04-01T07:17:53;8.80;99.90
33803;DHT22;20110;53.120;5.786;2023-04-01T07:20:31;8.70;99.90
33803;DHT22;20110;53.120;5.786;2023-04-01T07:23:26;8.80;99.90
33803;DHT22;20110;53.120;5.786;2023-04-01T07:26:21;8.80;99.90
33803;DHT22;20110;53.120;5.786;2023-04-01T07:28:50;8.70;99.90
33803;DHT22;20110;53.120;5.786;2023-04-01T07:37:17;8.80;99.90
33803;DHT22;20110;53.120;5.786;2023-04-01T07:49:08;8.90;99.90
33803;DHT22;20110;53.120;5.786;2023-04-01T07:52:04;8.90;99.90
33803;DHT22;20110;53.120;5.786;2023-04-01T07:54:59;8.90;99.90
33803;DHT22;20110;53.120;5.786;2023-04-01T07:57:43;9.00;99.90
33803;DHT22;20110;53.120;5.786;2023-04-01T08:01:02;9.00;99.90
33803;DHT22;20110;53.120;5.786;2023-04-01T08:07:23;9.00;99.90
33803;DHT22;20110;53.120;5.786;2023-04-01T08:10:29;9.10;99.90
33803;DHT22;20110;53.120;5.786;2023-04-01T08:13:19;9.10;99.90
33803;DHT22;20110;53.120;5.786;2023-04-01T08:21:49;9.10;99.90
33803;DHT22;20110;53.120;5.786;2023-04-01T08:27:17;9.30;99.90
33803;DHT22;20110;53.120;5.786;2023-04-01T08:33:24;9.30;99.90
33803;DHT22;20110;53.120;5.786;2023-04-01T08:36:23;9.40;99.90
33803;DHT22;20110;53.120;5.786;2023-04-01T08:38:57;9.40;99.90
33803;DHT22;20110;53.120;5.786;2023-04-01T08:44:20;9.40;99.90
33803;DHT22;20110;53.120;5.786;2023-04-01T08:53:34;9.40;99.90
33803;DHT22;20110;53.120;5.786;2023-04-01T08:56:20;9.40;99.90
33803;DHT22;20110;53.120;5.786;2023-04-01T09:02:39;9.50;99.90
33803;DHT22;20110;53.120;5.786;2023-04-01T09:23:40;10.20;99.90
33803;DHT22;20110;53.120;5.786;2023-04-01T09:26:39;10.20;99.90
33803;DHT22;20110;53.120;5.786;2023-04-01T09:38:35;10.30;99.90
33803;DHT22;20110;53.120;5.786;2023-04-01T09:41:18;10.40;99.90
33803;DHT22;20110;53.120;5.786;2023-04-01T09:44:04;10.50;99.90
33803;DHT22;20110;53.120;5.786;2023-04-01T09:58:55;10.20;99.90
33803;DHT22;20110;53.120;5.786;2023-04-01T10:07:37;10.10;99.90
33803;DHT22;20110;53.120;5.786;2023-04-01T10:10:33;10.30;99.90
33803;DHT22;20110;53.120;5.786;2023-04-01T10:23:27;10.10;99.90
33803;DHT22;20110;53.120;5.786;2023-04-01T10:29:45;10.40;99.90
33803;DHT22;20110;53.120;5.786;2023-04-01T10:58:21;10.40;99.90
33803;DHT22;20110;53.120;5.786;2023-04-01T11:48:19;10.50;99.90
33803;DHT22;20110;53.120;5.786;2023-04-01T11:51:19;10.50;99.90
33803;DHT22;20110;53.120;5.786;2023-04-01T12:06:44;10.40;99.90
33803;DHT22;20110;53.120;5.786;2023-04-01T12:09:24;10.30;99.90
33803;DHT22;20110;53.120;5.786;2023-04-01T12:17:43;10.20;99.90
33803;DHT22;20110;53.120;5.786;2023-04-01T12:20:38;10.20;99.90
33803;DHT22;20110;53.120;5.786;2023-04-01T12:35:21;10.30;99.90
33803;DHT22;20110;53.120;5.786;2023-04-01T12:47:00;10.30;99.90
33803;DHT22;20110;53.120;5.786;2023-04-01T12:55:40;10.20;99.90
33803;DHT22;20110;53.120;5.786;2023-04-01T12:58:37;10.10;99.90
33803;DHT22;20110;53.120;5.786;2023-04-01T13:01:41;10.00;99.90
33803;DHT22;20110;53.120;5.786;2023-04-01T13:13:24;10.20;99.90
33803;DHT22;20110;53.120;5.786;2023-04-01T13:16:16;10.20;99.90
33803;DHT22;20110;53.120;5.786;2023-04-01T13:27:44;10.30;99.90
33803;DHT22;20110;53.120;5.786;2023-04-01T13:30:26;10.30;99.90
33803;DHT22;20110;53.120;5.786;2023-04-01T13:33:17;10.30;99.90
33803;DHT22;20110;53.120;5.786;2023-04-01T13:35:59;10.30;99.90
33803;DHT22;20110;53.120;5.786;2023-04-01T13:42:04;10.00;99.90
33803;DHT22;20110;53.120;5.786;2023-04-01T13:44:45;9.90;99.90
33803;DHT22;20110;53.120;5.786;2023-04-01T14:10:40;9.40;99.90
33803;DHT22;20110;53.120;5.786;2023-04-01T14:39:15;8.80;99.90
33803;DHT22;20110;53.120;5.786;2023-04-01T14:42:21;8.70;99.90
33803;DHT22;20110;53.120;5.786;2023-04-01T14:51:02;8.60;99.90
33803;DHT22;20110;53.120;5.786;2023-04-01T14:53:43;8.60;99.90
33803;DHT22;20110;53.120;5.786;2023-04-01T14:56:42;8.60;99.90
33803;DHT22;20110;53.120;5.786;2023-04-01T14:59:13;8.50;99.90
33803;DHT22;20110;53.120;5.786;2023-04-01T15:01:53;8.50;99.90
33803;DHT22;20110;53.120;5.786;2023-04-01T15:04:46;8.40;99.90
33803;DHT22;20110;53.120;5.786;2023-04-01T15:07:42;8.40;99.90
33803;DHT22;20110;53.120;5.786;2023-04-01T15:10:48;8.30;99.90
33803;DHT22;20110;53.120;5.786;2023-04-01T15:28:00;8.20;99.90
33803;DHT22;20110;53.120;5.786;2023-04-01T15:43:00;7.80;99.90
33803;DHT22;20110;53.120;5.786;2023-04-01T16:07:21;7.40;99.90
33803;DHT22;20110;53.120;5.786;2023-04-01T16:12:46;7.30;99.90
33803;DHT22;20110;53.120;5.786;2023-04-01T16:15:25;7.30;99.90
33803;DHT22;20110;53.120;5.786;2023-04-01T16:18:22;7.30;99.90
33803;DHT22;20110;53.120;5.786;2023-04-01T16:23:58;7.10;99.90
33803;DHT22;20110;53.120;5.786;2023-04-01T16:26:31;7.10;99.90
33803;DHT22;20110;53.120;5.786;2023-04-01T16:32:17;7.00;99.90
33803;DHT22;20110;53.120;5.786;2023-04-01T16:38:03;6.80;99.90
33803;DHT22;20110;53.120;5.786;2023-04-01T16:46:15;6.80;99.90
33803;DHT22;20110;53.120;5.786;2023-04-01T16:59:35;6.60;99.90
33803;DHT22;20110;53.120;5.786;2023-04-01T17:04:44;6.50;99.90
33803;DHT22;20110;53.120;5.786;2023-04-01T17:07:36;6.50;99.90
33803;DHT22;20110;53.120;5.786;2023-04-01T17:10:40;6.50;99.90
33803;DHT22;20110;53.120;5.786;2023-04-01T17:13:40;6.40;99.90
33803;DHT22;20110;53.120;5.786;2023-04-01T17:16:31;6.40;99.90
33803;DHT22;20110;53.120;5.786;2023-04-01T17:19:35;6.30;99.90
33803;DHT22;20110;53.120;5.786;2023-04-01T17:22:20;6.30;99.90
33803;DHT22;20110;53.120;5.786;2023-04-01T17:27:44;6.30;99.90
33803;DHT22;20110;53.120;5.786;2023-04-01T17:30:28;6.30;99.90
33803;DHT22;20110;53.120;5.786;2023-04-01T17:48:03;6.10;99.90
33803;DHT22;20110;53.120;5.786;2023-04-01T17:56:58;5.90;99.90
33803;DHT22;20110;53.120;5.786;2023-04-01T17:59:36;5.80;99.90
33803;DHT22;20110;53.120;5.786;2023-04-01T18:02:20;5.90;99.90
33803;DHT22;20110;53.120;5.786;2023-04-01T18:08:15;5.90;99.90
33803;DHT22;20110;53.120;5.786;2023-04-01T18:11:00;5.80;99.90
33803;DHT22;20110;53.120;5.786;2023-04-01T18:22:44;5.60;99.90
33803;DHT22;20110;53.120;5.786;2023-04-01T18:25:36;5.60;99.90
33803;DHT22;20110;53.120;5.786;2023-04-01T18:33:40;5.50;99.90
33803;DHT22;20110;53.120;5.786;2023-04-01T18:39:00;5.50;99.90
33803;DHT22;20110;53.120;5.786;2023-04-01T18:41:40;5.50;99.90
33803;DHT22;20110;53.120;5.786;2023-04-01T18:50:52;5.50;99.90
33803;DHT22;20110;53.120;5.786;2023-04-01T18:53:41;5.50;99.90
33803;DHT22;20110;53.120;5.786;2023-04-01T18:56:37;5.50;99.90
33803;DHT22;20110;53.120;5.786;2023-04-01T18:59:19;5.50;99.90
33803;DHT22;20110;53.120;5.786;2023-04-01T19:05:07;5.50;99.90
33803;DHT22;20110;53.120;5.786;2023-04-01T19:13:19;5.50;99.90
33803;DHT22;20110;53.120;5.786;2023-04-01T19:19:13;5.40;99.90
33803;DHT22;20110;53.120;5.786;2023-04-01T19:21:58;5.40;99.90
33803;DHT22;20110;53.120;5.786;2023-04-01T19:27:35;5.30;99.90
33803;DHT22;20110;53.120;5.786;2023-04-01T19:32:57;5.30;99.90
33803;DHT22;20110;53.120;5.786;2023-04-01T19:54:15;5.20;99.90
33803;DHT22;20110;53.120;5.786;2023-04-01T19:57:06;5.10;99.90
33803;DHT22;20110;53.120;5.786;2023-04-01T19:59:57;5.10;99.90
33803;DHT22;20110;53.120;5.786;2023-04-01T20:06:37;5.10;99.90
33803;DHT22;20110;53.120;5.786;2023-04-01T20:12:33;5.00;99.90
33803;DHT22;20110;53.120;5.786;2023-04-01T20:15:39;5.10;99.90
33803;DHT22;20110;53.120;5.786;2023-04-01T20:18:21;5.10;99.90
33803;DHT22;20110;53.120;5.786;2023-04-01T20:21:06;5.00;99.90
33803;DHT22;20110;53.120;5.786;2023-04-01T20:23:45;5.00;99.90
33803;DHT22;20110;53.120;5.786;2023-04-01T20:26:21;5.00;99.90
33803;DHT22;20110;53.120;5.786;2023-04-01T20:40:37;4.90;99.90
33803;DHT22;20110;53.120;5.786;2023-04-01T20:43:28;4.90;99.90
33803;DHT22;20110;53.120;5.786;2023-04-01T20:46:20;4.90;99.90
33803;DHT22;20110;53.120;5.786;2023-04-01T20:51:38;4.80;99.90
33803;DHT22;20110;53.120;5.786;2023-04-01T20:57:20;4.80;99.90
33803;DHT22;20110;53.120;5.786;2023-04-01T21:00:20;4.80;99.90
33803;DHT22;20110;53.120;5.786;2023-04-01T21:03:15;4.80;99.90
33803;DHT22;20110;53.120;5.786;2023-04-01T21:12:35;4.70;99.90
33803;DHT22;20110;53.120;5.786;2023-04-01T21:24:59;4.60;99.90
33803;DHT22;20110;53.120;5.786;2023-04-01T21:40:18;4.60;99.90
33803;DHT22;20110;53.120;5.786;2023-04-01T21:43:14;4.60;99.90
33803;DHT22;20110;53.120;5.786;2023-04-01T21:49:01;4.50;99.90
33803;DHT22;20110;53.120;5.786;2023-04-01T22:06:06;4.40;99.90
33803;DHT22;20110;53.120;5.786;2023-04-01T22:08:53;4.40;99.90
33803;DHT22;20110;53.120;5.786;2023-04-01T22:14:53;4.30;99.90
33803;DHT22;20110;53.120;5.786;2023-04-01T22:27:34;4.20;99.90
33803;DHT22;20110;53.120;5.786;2023-04-01T22:30:26;4.20;99.90
33803;DHT22;20110;53.120;5.786;2023-04-01T22:32:59;4.20;99.90
33803;DHT22;20110;53.120;5.786;2023-04-01T22:44:38;4.10;99.90
33803;DHT22;20110;53.120;5.786;2023-04-01T22:48:06;4.10;99.90
33803;DHT22;20110;53.120;5.786;2023-04-01T22:50:21;4.10;99.90
33803;DHT22;20110;53.120;5.786;2023-04-01T22:53:18;4.10;99.90
33803;DHT22;20110;53.120;5.786;2023-04-01T22:55:50;4.00;99.90
33803;DHT22;20110;53.120;5.786;2023-04-01T22:58:24;4.00;99.90
33803;DHT22;20110;53.120;5.786;2023-04-01T23:01:06;4.00;99.90
33803;DHT22;20110;53.120;5.786;2023-04-01T23:03:40;4.00;99.90
33803;DHT22;20110;53.120;5.786;2023-04-01T23:06:15;4.00;99.90
33803;DHT22;20110;53.120;5.786;2023-04-01T23:08:53;4.00;99.90
33803;DHT22;20110;53.120;5.786;2023-04-01T23:33:30;3.70;99.90
33803;DHT22;20110;53.120;5.786;2023-04-01T23:36:02;3.60;99.90
33803;DHT22;20110;53.120;5.786;2023-04-01T23:38:40;3.60;99.90
33803;DHT22;20110;53.120;5.786;2023-04-01T23:41:16;3.60;99.90
33803;DHT22;20110;53.120;5.786;2023-04-01T23:44:07;3.60;99.90
33803;DHT22;20110;53.120;5.786;2023-04-01T23:46:40;3.60;99.90
33803;DHT22;20110;53.120;5.786;2023-04-01T23:49:13;3.50;99.90
33803;DHT22;20110;53.120;5.786;2023-04-01T23:51:56;3.50;99.90
33803;DHT22;20110;53.120;5.786;2023-04-01T23:54:48;3.40;99.90
33803;DHT22;20110;53.120;5.786;2023-04-01T23:57:29;3.30;99.90
